sensor_id;sensor_type;location;lat;lon;timestamp;temperature;humidity
19888;DHT22;10106;51.332;12.336;2022-10-31T01:47:17;11.80;99.90
19888;DHT22;10106;51.332;12.336;2022-10-31T01:49:57;11.80;99.90
19888;DHT22;10106;51.332;12.336;2022-10-31T01:52:30;11.80;99.90
19888;DHT22;10106;51.332;12.336;2022-10-31T01:55:38;11.70;99.90
19888;DHT22;10106;51.332;12.336;2022-10-31T01:58:22;11.70;99.90
19888;DHT22;10106;51.332;12.336;2022-10-31T02:00:52;11.70;99.90
19888;DHT22;10106;51.332;12.336;2022-10-31T02:03:20;11.60;99.90
19888;DHT22;10106;51.332;12.336;2022-10-31T02:05:47;11.60;99.90
19888;DHT22;10106;51.332;12.336;2022-10-31T02:08:34;11.70;99.90
19888;DHT22;10106;51.332;12.336;2022-10-31T02:11:01;11.60;99.90
19888;DHT22;10106;51.332;12.336;2022-10-31T02:13:28;11.60;99.90
19888;DHT22;10106;51.332;12.336;2022-10-31T02:15:56;11.50;99.90
19888;DHT22;10106;51.332;12.336;2022-10-31T02:18:25;11.50;99.90
19888;DHT22;10106;51.332;12.336;2022-10-31T02:21:15;11.40;99.90
19888;DHT22;10106;51.332;12.336;2022-10-31T02:27:11;11.50;99.90
19888;DHT22;10106;51.332;12.336;2022-10-31T02:35:28;11.40;99.90
19888;DHT22;10106;51.332;12.336;2022-10-31T02:38:07;11.30;99.90
19888;DHT22;10106;51.332;12.336;2022-10-31T02:43:30;11.40;99.90
19888;DHT22;10106;51.332;12.336;2022-10-31T02:48:44;11.20;99.90
19888;DHT22;10106;51.332;12.336;2022-10-31T02:51:11;11.20;99.90
19888;DHT22;10106;51.332;12.336;2022-10-31T02:53:37;11.20;99.90
19888;DHT22;10106;51.332;12.336;2022-10-31T02:56:08;11.20;99.90
19888;DHT22;10106;51.332;12.336;2022-10-31T02:58:38;11.20;99.90
19888;DHT22;10106;51.332;12.336;2022-10-31T03:01:53;11.20;99.90
19888;DHT22;10106;51.332;12.336;2022-10-31T03:12:27;11.10;99.90
19888;DHT22;10106;51.332;12.336;2022-10-31T03:15:18;11.10;99.90
19888;DHT22;10106;51.332;12.336;2022-10-31T03:18:02;11.00;99.90
19888;DHT22;10106;51.332;12.336;2022-10-31T03:20:38;11.00;99.90
19888;DHT22;10106;51.332;12.336;2022-10-31T03:23:09;11.00;99.90
19888;DHT22;10106;51.332;12.336;2022-10-31T03:25:37;11.00;99.90
19888;DHT22;10106;51.332;12.336;2022-10-31T03:28:03;11.00;99.90
19888;DHT22;10106;51.332;12.336;2022-10-31T03:30:33;11.00;99.90
19888;DHT22;10106;51.332;12.336;2022-10-31T03:33:03;10.90;99.90
19888;DHT22;10106;51.332;12.336;2022-10-31T03:35:30;10.80;99.90
19888;DHT22;10106;51.332;12.336;2022-10-31T03:37:59;10.80;99.90
19888;DHT22;10106;51.332;12.336;2022-10-31T03:40:27;10.80;99.90
19888;DHT22;10106;51.332;12.336;2022-10-31T03:42:59;10.80;99.90
19888;DHT22;10106;51.332;12.336;2022-10-31T03:45:30;10.80;99.90
19888;DHT22;10106;51.332;12.336;2022-10-31T03:47:58;10.80;99.90
19888;DHT22;10106;51.332;12.336;2022-10-31T03:50:28;10.80;99.90
19888;DHT22;10106;51.332;12.336;2022-10-31T03:53:08;10.80;99.90
19888;DHT22;10106;51.332;12.336;2022-10-31T03:55:47;10.90;99.90
19888;DHT22;10106;51.332;12.336;2022-10-31T03:58:27;10.80;99.90
19888;DHT22;10106;51.332;12.336;2022-10-31T04:00:55;10.80;99.90
19888;DHT22;10106;51.332;12.336;2022-10-31T04:03:28;10.80;99.90
19888;DHT22;10106;51.332;12.336;2022-10-31T04:05:59;10.70;99.90
19888;DHT22;10106;51.332;12.336;2022-10-31T04:08:31;10.70;99.90
19888;DHT22;10106;51.332;12.336;2022-10-31T04:10:59;10.70;99.90
19888;DHT22;10106;51.332;12.336;2022-10-31T04:13:28;10.60;99.90
19888;DHT22;10106;51.332;12.336;2022-10-31T04:15:55;10.60;99.90
19888;DHT22;10106;51.332;12.336;2022-10-31T04:18:25;10.50;99.90
19888;DHT22;10106;51.332;12.336;2022-10-31T04:21:00;10.50;99.90
19888;DHT22;10106;51.332;12.336;2022-10-31T04:23:26;10.40;99.90
19888;DHT22;10106;51.332;12.336;2022-10-31T04:25:52;10.40;99.90
19888;DHT22;10106;51.332;12.336;2022-10-31T04:28:18;10.50;99.90
19888;DHT22;10106;51.332;12.336;2022-10-31T04:30:44;10.40;99.90
19888;DHT22;10106;51.332;12.336;2022-10-31T04:33:09;10.40;99.90
19888;DHT22;10106;51.332;12.336;2022-10-31T04:35:35;10.40;99.90
19888;DHT22;10106;51.332;12.336;2022-10-31T04:38:00;10.40;99.90
19888;DHT22;10106;51.332;12.336;2022-10-31T04:40:26;10.30;99.90
19888;DHT22;10106;51.332;12.336;2022-10-31T04:42:52;10.30;99.90
19888;DHT22;10106;51.332;12.336;2022-10-31T04:45:17;10.20;99.90
19888;DHT22;10106;51.332;12.336;2022-10-31T04:47:43;10.30;99.90
19888;DHT22;10106;51.332;12.336;2022-10-31T04:50:08;10.30;99.90
19888;DHT22;10106;51.332;12.336;2022-10-31T04:52:41;10.30;99.90
19888;DHT22;10106;51.332;12.336;2022-10-31T04:55:08;10.30;99.90
19888;DHT22;10106;51.332;12.336;2022-10-31T04:57:41;10.20;99.90
19888;DHT22;10106;51.332;12.336;2022-10-31T05:00:08;10.30;99.90
19888;DHT22;10106;51.332;12.336;2022-10-31T05:02:33;10.20;99.90
19888;DHT22;10106;51.332;12.336;2022-10-31T05:04:59;10.20;99.90
19888;DHT22;10106;51.332;12.336;2022-10-31T05:07:25;10.10;99.90
19888;DHT22;10106;51.332;12.336;2022-10-31T05:09:51;10.10;99.90
19888;DHT22;10106;51.332;12.336;2022-10-31T05:12:17;10.00;99.90
19888;DHT22;10106;51.332;12.336;2022-10-31T05:14:43;10.00;99.90
19888;DHT22;10106;51.332;12.336;2022-10-31T05:17:08;9.90;99.90
19888;DHT22;10106;51.332;12.336;2022-10-31T05:19:34;9.90;99.90
19888;DHT22;10106;51.332;12.336;2022-10-31T05:21:59;9.90;99.90
19888;DHT22;10106;51.332;12.336;2022-10-31T05:24:25;9.90;99.90
19888;DHT22;10106;51.332;12.336;2022-10-31T05:26:50;9.90;99.90
19888;DHT22;10106;51.332;12.336;2022-10-31T05:29:16;9.90;99.90
19888;DHT22;10106;51.332;12.336;2022-10-31T05:31:42;9.90;99.90
19888;DHT22;10106;51.332;12.336;2022-10-31T05:34:07;9.90;99.90
19888;DHT22;10106;51.332;12.336;2022-10-31T05:36:33;9.90;99.90
19888;DHT22;10106;51.332;12.336;2022-10-31T05:38:58;9.80;99.90
19888;DHT22;10106;51.332;12.336;2022-10-31T05:41:24;9.80;99.90
19888;DHT22;10106;51.332;12.336;2022-10-31T05:43:49;9.80;99.90
19888;DHT22;10106;51.332;12.336;2022-10-31T05:46:15;9.80;99.90
19888;DHT22;10106;51.332;12.336;2022-10-31T05:48:41;9.80;99.90
19888;DHT22;10106;51.332;12.336;2022-10-31T05:51:06;9.70;99.90
19888;DHT22;10106;51.332;12.336;2022-10-31T05:53:32;9.70;99.90
19888;DHT22;10106;51.332;12.336;2022-10-31T05:55:57;9.70;99.90
19888;DHT22;10106;51.332;12.336;2022-10-31T05:58:23;9.70;99.90
19888;DHT22;10106;51.332;12.336;2022-10-31T06:05:59;9.90;99.90
19888;DHT22;10106;51.332;12.336;2022-10-31T06:08:25;9.90;99.90
19888;DHT22;10106;51.332;12.336;2022-10-31T06:10:50;10.00;99.90
19888;DHT22;10106;51.332;12.336;2022-10-31T06:13:18;10.00;99.90
19888;DHT22;10106;51.332;12.336;2022-10-31T06:15:43;10.10;99.90
19888;DHT22;10106;51.332;12.336;2022-10-31T06:18:09;10.20;99.90
19888;DHT22;10106;51.332;12.336;2022-10-31T06:20:35;10.30;99.90
19888;DHT22;10106;51.332;12.336;2022-10-31T06:23:01;10.30;99.90
19888;DHT22;10106;51.332;12.336;2022-10-31T06:25:27;10.40;99.90
19888;DHT22;10106;51.332;12.336;2022-10-31T06:27:53;10.50;99.90
19888;DHT22;10106;51.332;12.336;2022-10-31T06:30:19;10.60;99.90
19888;DHT22;10106;51.332;12.336;2022-10-31T06:32:45;10.70;99.90
19888;DHT22;10106;51.332;12.336;2022-10-31T06:35:10;10.80;99.90
19888;DHT22;10106;51.332;12.336;2022-10-31T06:37:36;11.00;99.90
19888;DHT22;10106;51.332;12.336;2022-10-31T06:40:03;11.10;99.90
19888;DHT22;10106;51.332;12.336;2022-10-31T06:42:28;11.20;99.90
19888;DHT22;10106;51.332;12.336;2022-10-31T06:44:54;11.40;99.90
19888;DHT22;10106;51.332;12.336;2022-10-31T06:47:19;11.50;99.90
19888;DHT22;10106;51.332;12.336;2022-10-31T06:49:45;11.70;99.90
19888;DHT22;10106;51.332;12.336;2022-10-31T06:52:10;11.80;99.90
19888;DHT22;10106;51.332;12.336;2022-10-31T06:54:36;12.00;99.90
19888;DHT22;10106;51.332;12.336;2022-10-31T06:57:02;12.20;99.90
19888;DHT22;10106;51.332;12.336;2022-10-31T06:59:27;12.80;99.90
19888;DHT22;10106;51.332;12.336;2022-10-31T07:01:53;13.60;99.90
19888;DHT22;10106;51.332;12.336;2022-10-31T07:04:18;14.00;99.90
19888;DHT22;10106;51.332;12.336;2022-10-31T07:06:44;14.10;99.90
19888;DHT22;10106;51.332;12.336;2022-10-31T07:09:09;14.40;99.90
19888;DHT22;10106;51.332;12.336;2022-10-31T07:11:35;15.00;99.90
19888;DHT22;10106;51.332;12.336;2022-10-31T07:14:01;16.10;99.90
19888;DHT22;10106;51.332;12.336;2022-10-31T07:16:26;17.40;99.90
19888;DHT22;10106;51.332;12.336;2022-10-31T07:18:52;18.70;99.90
19888;DHT22;10106;51.332;12.336;2022-10-31T07:23:43;20.60;99.90
19888;DHT22;10106;51.332;12.336;2022-10-31T07:26:10;21.20;99.90
19888;DHT22;10106;51.332;12.336;2022-10-31T07:28:35;21.80;99.90
19888;DHT22;10106;51.332;12.336;2022-10-31T07:31:01;22.00;99.90
19888;DHT22;10106;51.332;12.336;2022-10-31T07:33:27;22.30;99.90
19888;DHT22;10106;51.332;12.336;2022-10-31T07:35:53;22.50;99.90
19888;DHT22;10106;51.332;12.336;2022-10-31T07:38:21;22.60;99.90
19888;DHT22;10106;51.332;12.336;2022-10-31T07:40:50;22.60;99.90
19888;DHT22;10106;51.332;12.336;2022-10-31T07:43:17;22.60;99.90
19888;DHT22;10106;51.332;12.336;2022-10-31T07:45:42;21.90;99.90
19888;DHT22;10106;51.332;12.336;2022-10-31T07:48:08;22.00;99.90
19888;DHT22;10106;51.332;12.336;2022-10-31T07:50:33;22.40;99.90
19888;DHT22;10106;51.332;12.336;2022-10-31T07:53:06;22.80;99.90
19888;DHT22;10106;51.332;12.336;2022-10-31T07:55:33;23.30;99.50
19888;DHT22;10106;51.332;12.336;2022-10-31T07:58:01;23.70;98.20
19888;DHT22;10106;51.332;12.336;2022-10-31T08:00:28;24.10;96.30
19888;DHT22;10106;51.332;12.336;2022-10-31T08:03:11;24.60;94.60
19888;DHT22;10106;51.332;12.336;2022-10-31T08:05:37;25.20;93.00
19888;DHT22;10106;51.332;12.336;2022-10-31T08:08:04;25.80;91.70
19888;DHT22;10106;51.332;12.336;2022-10-31T08:10:30;26.50;88.80
19888;DHT22;10106;51.332;12.336;2022-10-31T08:13:02;26.70;86.50
19888;DHT22;10106;51.332;12.336;2022-10-31T08:15:27;26.70;84.60
19888;DHT22;10106;51.332;12.336;2022-10-31T08:17:53;27.00;83.10
19888;DHT22;10106;51.332;12.336;2022-10-31T08:20:19;27.50;78.90
19888;DHT22;10106;51.332;12.336;2022-10-31T08:22:59;27.90;77.60
19888;DHT22;10106;51.332;12.336;2022-10-31T08:25:26;27.70;77.80
19888;DHT22;10106;51.332;12.336;2022-10-31T08:27:53;27.70;76.90
19888;DHT22;10106;51.332;12.336;2022-10-31T08:30:20;28.00;75.50
19888;DHT22;10106;51.332;12.336;2022-10-31T08:32:46;28.00;75.00
19888;DHT22;10106;51.332;12.336;2022-10-31T08:35:12;28.10;74.70
19888;DHT22;10106;51.332;12.336;2022-10-31T08:37:37;28.00;73.90
19888;DHT22;10106;51.332;12.336;2022-10-31T08:40:04;28.50;72.70
19888;DHT22;10106;51.332;12.336;2022-10-31T08:42:30;28.60;72.50
19888;DHT22;10106;51.332;12.336;2022-10-31T08:44:55;28.80;72.00
19888;DHT22;10106;51.332;12.336;2022-10-31T08:47:21;29.00;70.90
19888;DHT22;10106;51.332;12.336;2022-10-31T08:49:46;28.90;69.20
19888;DHT22;10106;51.332;12.336;2022-10-31T08:52:12;29.50;68.40
19888;DHT22;10106;51.332;12.336;2022-10-31T08:54:38;29.60;67.60
19888;DHT22;10106;51.332;12.336;2022-10-31T08:57:03;29.60;67.60
19888;DHT22;10106;51.332;12.336;2022-10-31T08:59:29;29.40;67.10
19888;DHT22;10106;51.332;12.336;2022-10-31T09:01:54;28.40;68.60
19888;DHT22;10106;51.332;12.336;2022-10-31T09:04:20;27.10;71.60
19888;DHT22;10106;51.332;12.336;2022-10-31T09:06:45;26.20;75.20
19888;DHT22;10106;51.332;12.336;2022-10-31T09:09:11;26.30;76.50
19888;DHT22;10106;51.332;12.336;2022-10-31T09:11:40;26.50;76.80
19888;DHT22;10106;51.332;12.336;2022-10-31T09:14:05;26.20;78.00
19888;DHT22;10106;51.332;12.336;2022-10-31T09:16:31;25.70;80.10
19888;DHT22;10106;51.332;12.336;2022-10-31T09:18:57;25.40;83.30
19888;DHT22;10106;51.332;12.336;2022-10-31T09:21:22;26.00;83.10
19888;DHT22;10106;51.332;12.336;2022-10-31T09:23:48;26.90;81.20
19888;DHT22;10106;51.332;12.336;2022-10-31T09:26:13;27.40;79.10
19888;DHT22;10106;51.332;12.336;2022-10-31T09:28:39;27.60;80.20
19888;DHT22;10106;51.332;12.336;2022-10-31T09:31:08;28.20;77.50
19888;DHT22;10106;51.332;12.336;2022-10-31T09:33:37;28.00;75.90
19888;DHT22;10106;51.332;12.336;2022-10-31T09:36:02;26.30;79.00
19888;DHT22;10106;51.332;12.336;2022-10-31T09:38:28;24.70;85.90
19888;DHT22;10106;51.332;12.336;2022-10-31T09:47:22;21.60;99.90
19888;DHT22;10106;51.332;12.336;2022-10-31T09:52:34;19.70;99.90
19888;DHT22;10106;51.332;12.336;2022-10-31T09:55:06;19.60;99.90
19888;DHT22;10106;51.332;12.336;2022-10-31T09:57:36;19.60;99.90
19888;DHT22;10106;51.332;12.336;2022-10-31T10:00:07;19.40;99.90
19888;DHT22;10106;51.332;12.336;2022-10-31T10:02:39;19.30;99.90
19888;DHT22;10106;51.332;12.336;2022-10-31T10:05:17;19.30;99.90
19888;DHT22;10106;51.332;12.336;2022-10-31T10:07:54;19.20;99.90
19888;DHT22;10106;51.332;12.336;2022-10-31T10:10:38;19.10;99.90
19888;DHT22;10106;51.332;12.336;2022-10-31T10:13:15;19.00;99.90
19888;DHT22;10106;51.332;12.336;2022-10-31T10:16:07;19.00;99.90
19888;DHT22;10106;51.332;12.336;2022-10-31T10:18:41;19.00;99.90
19888;DHT22;10106;51.332;12.336;2022-10-31T10:21:48;19.20;99.90
19888;DHT22;10106;51.332;12.336;2022-10-31T10:27:03;19.50;99.90
19888;DHT22;10106;51.332;12.336;2022-10-31T10:29:39;19.50;99.90
19888;DHT22;10106;51.332;12.336;2022-10-31T10:32:18;19.40;99.90
19888;DHT22;10106;51.332;12.336;2022-10-31T10:34:49;19.40;99.90
19888;DHT22;10106;51.332;12.336;2022-10-31T10:39:45;19.30;99.90
19888;DHT22;10106;51.332;12.336;2022-10-31T10:42:14;19.40;99.90
19888;DHT22;10106;51.332;12.336;2022-10-31T10:44:59;19.30;99.90
19888;DHT22;10106;51.332;12.336;2022-10-31T10:47:50;19.10;99.90
19888;DHT22;10106;51.332;12.336;2022-10-31T10:50:20;19.00;99.90
19888;DHT22;10106;51.332;12.336;2022-10-31T10:55:47;18.80;99.90
19888;DHT22;10106;51.332;12.336;2022-10-31T10:58:14;18.80;99.90
19888;DHT22;10106;51.332;12.336;2022-10-31T11:00:42;18.80;99.90
19888;DHT22;10106;51.332;12.336;2022-10-31T11:03:09;18.90;99.90
19888;DHT22;10106;51.332;12.336;2022-10-31T11:05:51;18.80;99.90
19888;DHT22;10106;51.332;12.336;2022-10-31T11:08:32;18.90;99.90
19888;DHT22;10106;51.332;12.336;2022-10-31T11:11:04;18.90;99.90
19888;DHT22;10106;51.332;12.336;2022-10-31T11:13:32;19.00;99.90
19888;DHT22;10106;51.332;12.336;2022-10-31T11:16:06;19.10;99.90
19888;DHT22;10106;51.332;12.336;2022-10-31T11:18:36;19.30;99.90
19888;DHT22;10106;51.332;12.336;2022-10-31T11:21:03;19.30;99.90
19888;DHT22;10106;51.332;12.336;2022-10-31T11:23:31;19.30;99.90
19888;DHT22;10106;51.332;12.336;2022-10-31T11:25:59;19.40;99.90
19888;DHT22;10106;51.332;12.336;2022-10-31T11:28:27;19.40;99.90
19888;DHT22;10106;51.332;12.336;2022-10-31T11:31:22;19.40;99.90
19888;DHT22;10106;51.332;12.336;2022-10-31T11:33:49;19.30;99.90
19888;DHT22;10106;51.332;12.336;2022-10-31T11:36:22;19.20;99.90
19888;DHT22;10106;51.332;12.336;2022-10-31T11:38:49;19.20;99.90
19888;DHT22;10106;51.332;12.336;2022-10-31T11:41:35;19.10;99.90
19888;DHT22;10106;51.332;12.336;2022-10-31T11:44:11;19.20;99.90
19888;DHT22;10106;51.332;12.336;2022-10-31T11:46:41;19.20;99.90
19888;DHT22;10106;51.332;12.336;2022-10-31T11:49:20;19.20;99.90
19888;DHT22;10106;51.332;12.336;2022-10-31T11:51:51;19.10;99.90
19888;DHT22;10106;51.332;12.336;2022-10-31T11:54:29;19.20;99.90
19888;DHT22;10106;51.332;12.336;2022-10-31T11:56:55;19.20;99.90
19888;DHT22;10106;51.332;12.336;2022-10-31T12:01:51;19.30;99.90
19888;DHT22;10106;51.332;12.336;2022-10-31T12:04:17;19.30;99.90
19888;DHT22;10106;51.332;12.336;2022-10-31T12:06:45;19.30;99.90
19888;DHT22;10106;51.332;12.336;2022-10-31T12:09:21;19.30;99.90
19888;DHT22;10106;51.332;12.336;2022-10-31T12:12:00;19.30;99.90
19888;DHT22;10106;51.332;12.336;2022-10-31T12:17:35;19.10;99.90
19888;DHT22;10106;51.332;12.336;2022-10-31T12:28:00;19.30;99.90
19888;DHT22;10106;51.332;12.336;2022-10-31T12:39:37;19.20;99.90
19888;DHT22;10106;51.332;12.336;2022-10-31T12:53:02;19.30;99.90
19888;DHT22;10106;51.332;12.336;2022-10-31T12:55:59;19.30;99.90
19888;DHT22;10106;51.332;12.336;2022-10-31T12:58:37;19.30;99.90
19888;DHT22;10106;51.332;12.336;2022-10-31T13:03:50;19.30;99.90
19888;DHT22;10106;51.332;12.336;2022-10-31T13:06:29;19.30;99.90
19888;DHT22;10106;51.332;12.336;2022-10-31T13:09:00;19.30;99.90
19888;DHT22;10106;51.332;12.336;2022-10-31T13:16:54;19.20;99.90
19888;DHT22;10106;51.332;12.336;2022-10-31T13:19:30;19.20;99.90
19888;DHT22;10106;51.332;12.336;2022-10-31T13:24:38;19.10;99.90
19888;DHT22;10106;51.332;12.336;2022-10-31T13:27:22;19.00;99.90
19888;DHT22;10106;51.332;12.336;2022-10-31T13:29:58;19.00;99.90
19888;DHT22;10106;51.332;12.336;2022-10-31T13:32:27;18.90;99.90
19888;DHT22;10106;51.332;12.336;2022-10-31T13:34:56;18.90;99.90
19888;DHT22;10106;51.332;12.336;2022-10-31T13:37:39;18.90;99.90
19888;DHT22;10106;51.332;12.336;2022-10-31T13:45:18;18.80;99.90
19888;DHT22;10106;51.332;12.336;2022-10-31T13:50:28;18.80;99.90
19888;DHT22;10106;51.332;12.336;2022-10-31T13:53:14;18.70;99.90
19888;DHT22;10106;51.332;12.336;2022-10-31T13:55:47;18.60;99.90
19888;DHT22;10106;51.332;12.336;2022-10-31T13:58:27;18.60;99.90
19888;DHT22;10106;51.332;12.336;2022-10-31T14:03:37;18.50;99.90
19888;DHT22;10106;51.332;12.336;2022-10-31T14:06:04;18.50;99.90
19888;DHT22;10106;51.332;12.336;2022-10-31T14:08:33;18.50;99.90
19888;DHT22;10106;51.332;12.336;2022-10-31T14:11:00;18.50;99.90
19888;DHT22;10106;51.332;12.336;2022-10-31T14:13:52;18.40;99.90
19888;DHT22;10106;51.332;12.336;2022-10-31T14:16:26;18.30;99.90
19888;DHT22;10106;51.332;12.336;2022-10-31T14:19:07;18.20;99.90
19888;DHT22;10106;51.332;12.336;2022-10-31T14:21:44;18.20;99.90
19888;DHT22;10106;51.332;12.336;2022-10-31T14:29:49;18.00;99.90
19888;DHT22;10106;51.332;12.336;2022-10-31T14:34:59;17.90;99.90
19888;DHT22;10106;51.332;12.336;2022-10-31T14:43:25;17.80;99.90
19888;DHT22;10106;51.332;12.336;2022-10-31T14:51:40;17.60;99.90
19888;DHT22;10106;51.332;12.336;2022-10-31T14:54:18;17.50;99.90
19888;DHT22;10106;51.332;12.336;2022-10-31T14:56:58;17.50;99.90
19888;DHT22;10106;51.332;12.336;2022-10-31T14:59:28;17.40;99.90
19888;DHT22;10106;51.332;12.336;2022-10-31T15:02:14;17.40;99.90
19888;DHT22;10106;51.332;12.336;2022-10-31T15:04:42;17.30;99.90
19888;DHT22;10106;51.332;12.336;2022-10-31T15:07:17;17.20;99.90
19888;DHT22;10106;51.332;12.336;2022-10-31T15:09:58;17.10;99.90
19888;DHT22;10106;51.332;12.336;2022-10-31T15:12:33;17.10;99.90
19888;DHT22;10106;51.332;12.336;2022-10-31T15:15:22;17.00;99.90
19888;DHT22;10106;51.332;12.336;2022-10-31T15:18:04;16.90;99.90
19888;DHT22;10106;51.332;12.336;2022-10-31T15:20:36;16.80;99.90
19888;DHT22;10106;51.332;12.336;2022-10-31T15:23:03;16.70;99.90
19888;DHT22;10106;51.332;12.336;2022-10-31T15:25:33;16.70;99.90
19888;DHT22;10106;51.332;12.336;2022-10-31T15:27:59;16.60;99.90
19888;DHT22;10106;51.332;12.336;2022-10-31T15:30:27;16.50;99.90
19888;DHT22;10106;51.332;12.336;2022-10-31T15:32:53;16.50;99.90
19888;DHT22;10106;51.332;12.336;2022-10-31T15:35:27;16.40;99.90
19888;DHT22;10106;51.332;12.336;2022-10-31T15:37:54;16.30;99.90
19888;DHT22;10106;51.332;12.336;2022-10-31T15:40:23;16.30;99.90
19888;DHT22;10106;51.332;12.336;2022-10-31T15:43:02;16.30;99.90
19888;DHT22;10106;51.332;12.336;2022-10-31T15:45:29;16.20;99.90
19888;DHT22;10106;51.332;12.336;2022-10-31T15:48:16;16.20;99.90
19888;DHT22;10106;51.332;12.336;2022-10-31T15:50:49;16.10;99.90
19888;DHT22;10106;51.332;12.336;2022-10-31T15:56:11;15.90;99.90
19888;DHT22;10106;51.332;12.336;2022-10-31T15:58:47;15.90;99.90
19888;DHT22;10106;51.332;12.336;2022-10-31T16:01:27;15.80;99.90
19888;DHT22;10106;51.332;12.336;2022-10-31T16:06:24;15.70;99.90
19888;DHT22;10106;51.332;12.336;2022-10-31T16:08:50;15.60;99.90
19888;DHT22;10106;51.332;12.336;2022-10-31T16:11:37;15.60;99.90
19888;DHT22;10106;51.332;12.336;2022-10-31T16:14:27;15.50;99.90
19888;DHT22;10106;51.332;12.336;2022-10-31T16:16:55;15.50;99.90
19888;DHT22;10106;51.332;12.336;2022-10-31T16:19:31;15.40;99.90
19888;DHT22;10106;51.332;12.336;2022-10-31T16:22:10;15.40;99.90
19888;DHT22;10106;51.332;12.336;2022-10-31T16:24:51;15.30;99.90
19888;DHT22;10106;51.332;12.336;2022-10-31T16:27:20;15.30;99.90
19888;DHT22;10106;51.332;12.336;2022-10-31T16:29:51;15.20;99.90
19888;DHT22;10106;51.332;12.336;2022-10-31T16:35:27;15.20;99.90
19888;DHT22;10106;51.332;12.336;2022-10-31T16:37:53;15.20;99.90
19888;DHT22;10106;51.332;12.336;2022-10-31T16:40:19;15.20;99.90
19888;DHT22;10106;51.332;12.336;2022-10-31T16:42:46;15.20;99.90
19888;DHT22;10106;51.332;12.336;2022-10-31T16:45:28;15.20;99.90
19888;DHT22;10106;51.332;12.336;2022-10-31T16:48:08;15.20;99.90
19888;DHT22;10106;51.332;12.336;2022-10-31T16:50:40;15.10;99.90
19888;DHT22;10106;51.332;12.336;2022-10-31T16:53:06;15.10;99.90
19888;DHT22;10106;51.332;12.336;2022-10-31T16:55:32;15.10;99.90
19888;DHT22;10106;51.332;12.336;2022-10-31T16:58:01;15.10;99.90
19888;DHT22;10106;51.332;12.336;2022-10-31T17:00:27;15.10;99.90
19888;DHT22;10106;51.332;12.336;2022-10-31T17:02:55;15.10;99.90
19888;DHT22;10106;51.332;12.336;2022-10-31T17:05:24;15.00;99.90
19888;DHT22;10106;51.332;12.336;2022-10-31T17:07:55;15.20;99.90
19888;DHT22;10106;51.332;12.336;2022-10-31T17:10:21;15.00;99.90
19888;DHT22;10106;51.332;12.336;2022-10-31T17:12:48;15.00;99.90
19888;DHT22;10106;51.332;12.336;2022-10-31T17:15:38;15.00;99.90
19888;DHT22;10106;51.332;12.336;2022-10-31T17:18:05;14.90;99.90
19888;DHT22;10106;51.332;12.336;2022-10-31T17:20:31;14.90;99.90
19888;DHT22;10106;51.332;12.336;2022-10-31T17:22:58;14.90;99.90
19888;DHT22;10106;51.332;12.336;2022-10-31T17:25:29;14.90;99.90
19888;DHT22;10106;51.332;12.336;2022-10-31T17:27:56;14.90;99.90
19888;DHT22;10106;51.332;12.336;2022-10-31T17:30:23;14.80;99.90
19888;DHT22;10106;51.332;12.336;2022-10-31T17:32:50;14.80;99.90
19888;DHT22;10106;51.332;12.336;2022-10-31T17:35:17;14.70;99.90
19888;DHT22;10106;51.332;12.336;2022-10-31T17:37:44;14.70;99.90
19888;DHT22;10106;51.332;12.336;2022-10-31T17:40:12;14.70;99.90
19888;DHT22;10106;51.332;12.336;2022-10-31T17:42:38;14.70;99.90
19888;DHT22;10106;51.332;12.336;2022-10-31T17:45:04;14.60;99.90
19888;DHT22;10106;51.332;12.336;2022-10-31T17:47:30;14.60;99.90
19888;DHT22;10106;51.332;12.336;2022-10-31T17:49:56;14.60;99.90
19888;DHT22;10106;51.332;12.336;2022-10-31T17:52:22;14.50;99.90
19888;DHT22;10106;51.332;12.336;2022-10-31T17:54:47;14.50;99.90
19888;DHT22;10106;51.332;12.336;2022-10-31T17:57:13;14.50;99.90
19888;DHT22;10106;51.332;12.336;2022-10-31T17:59:39;14.40;99.90
19888;DHT22;10106;51.332;12.336;2022-10-31T18:02:05;14.40;99.90
19888;DHT22;10106;51.332;12.336;2022-10-31T18:04:34;14.40;99.90
19888;DHT22;10106;51.332;12.336;2022-10-31T18:07:00;14.40;99.90
19888;DHT22;10106;51.332;12.336;2022-10-31T18:09:26;14.40;99.90
19888;DHT22;10106;51.332;12.336;2022-10-31T18:11:51;14.40;99.90
19888;DHT22;10106;51.332;12.336;2022-10-31T18:14:17;14.40;99.90
19888;DHT22;10106;51.332;12.336;2022-10-31T18:16:42;14.30;99.90
19888;DHT22;10106;51.332;12.336;2022-10-31T18:19:12;14.30;99.90
19888;DHT22;10106;51.332;12.336;2022-10-31T18:21:38;14.30;99.90
19888;DHT22;10106;51.332;12.336;2022-10-31T18:24:04;14.30;99.90
19888;DHT22;10106;51.332;12.336;2022-10-31T18:26:29;14.20;99.90
19888;DHT22;10106;51.332;12.336;2022-10-31T18:28:58;14.20;99.90
19888;DHT22;10106;51.332;12.336;2022-10-31T18:31:25;14.10;99.90
19888;DHT22;10106;51.332;12.336;2022-10-31T18:33:52;14.10;99.90
19888;DHT22;10106;51.332;12.336;2022-10-31T18:36:18;14.10;99.90
19888;DHT22;10106;51.332;12.336;2022-10-31T18:38:45;14.10;99.90
19888;DHT22;10106;51.332;12.336;2022-10-31T18:41:14;14.10;99.90
19888;DHT22;10106;51.332;12.336;2022-10-31T18:43:39;14.10;99.90
19888;DHT22;10106;51.332;12.336;2022-10-31T18:46:12;14.10;99.90
19888;DHT22;10106;51.332;12.336;2022-10-31T18:48:40;14.10;99.90
19888;DHT22;10106;51.332;12.336;2022-10-31T18:51:08;14.10;99.90
19888;DHT22;10106;51.332;12.336;2022-10-31T18:53:35;14.00;99.90
19888;DHT22;10106;51.332;12.336;2022-10-31T18:56:07;14.10;99.90
19888;DHT22;10106;51.332;12.336;2022-10-31T18:58:34;14.20;99.90
19888;DHT22;10106;51.332;12.336;2022-10-31T19:01:11;14.10;99.90
19888;DHT22;10106;51.332;12.336;2022-10-31T19:03:37;14.20;99.90
19888;DHT22;10106;51.332;12.336;2022-10-31T19:06:03;14.10;99.90
19888;DHT22;10106;51.332;12.336;2022-10-31T19:08:29;14.10;99.90
19888;DHT22;10106;51.332;12.336;2022-10-31T19:11:01;14.10;99.90
19888;DHT22;10106;51.332;12.336;2022-10-31T19:13:27;14.10;99.90
19888;DHT22;10106;51.332;12.336;2022-10-31T19:15:53;14.10;99.90
19888;DHT22;10106;51.332;12.336;2022-10-31T19:18:19;14.10;99.90
19888;DHT22;10106;51.332;12.336;2022-10-31T19:20:47;14.10;99.90
19888;DHT22;10106;51.332;12.336;2022-10-31T19:23:12;14.10;99.90
19888;DHT22;10106;51.332;12.336;2022-10-31T19:25:39;14.10;99.90
19888;DHT22;10106;51.332;12.336;2022-10-31T19:28:04;14.10;99.90
19888;DHT22;10106;51.332;12.336;2022-10-31T19:30:30;14.10;99.90
19888;DHT22;10106;51.332;12.336;2022-10-31T19:32:56;14.10;99.90